West Farm, Colorado
Current Conditions -  °F | °C
As of 5:53 PM on Friday 19 Dec 2014 (Local Time) from KLAA Reporting Station
Clear Clear  
Wind Chill: 32°   Ceiling: Unl
Heat Index: 32°   Visibility: 10mi
Dew Point: 25°   Wind: 3mph
Humidity: 75%   Direction: 220°SW
Pressure: 30.05"   Gusts: NA
Location:  37.885°N, 102.667°W
Report Text: KLAA 200053Z AUTO 22003KT 10SM CLR 00/M04 A3005 RMK AO2 SLP202 T00001039
Loading
Personal Weather Stations






























Interactive Weather Map New forecast layout! Learn more

10-Day Weather Forecast

Advertisements
Track Severe Weather on mobile